sensor_id;sensor_type;location;lat;lon;timestamp;temperature;humidity
4637;DHT22;2331;48.806;9.140;2022-11-20T17:12:53;6.70;1.00
4637;DHT22;2331;48.806;9.140;2022-11-20T17:15:20;6.80;1.00
4637;DHT22;2331;48.806;9.140;2022-11-20T17:17:47;7.10;1.00
4637;DHT22;2331;48.806;9.140;2022-11-20T17:20:14;7.40;1.00
4637;DHT22;2331;48.806;9.140;2022-11-20T17:22:41;7.70;1.00
4637;DHT22;2331;48.806;9.140;2022-11-20T17:25:08;7.90;1.00
4637;DHT22;2331;48.806;9.140;2022-11-20T17:27:35;8.20;1.00
4637;DHT22;2331;48.806;9.140;2022-11-20T17:30:03;8.30;1.00
4637;DHT22;2331;48.806;9.140;2022-11-20T17:32:30;8.50;1.00
4637;DHT22;2331;48.806;9.140;2022-11-20T17:34:57;8.60;1.00
4637;DHT22;2331;48.806;9.140;2022-11-20T17:37:24;8.60;1.00
4637;DHT22;2331;48.806;9.140;2022-11-20T17:39:51;8.70;1.00
4637;DHT22;2331;48.806;9.140;2022-11-20T17:42:17;8.80;1.00
4637;DHT22;2331;48.806;9.140;2022-11-20T17:44:55;8.90;1.00
4637;DHT22;2331;48.806;9.140;2022-11-20T17:47:24;9.00;1.00
4637;DHT22;2331;48.806;9.140;2022-11-20T17:49:51;9.10;1.00
4637;DHT22;2331;48.806;9.140;2022-11-20T17:52:20;9.00;1.00
4637;DHT22;2331;48.806;9.140;2022-11-20T17:54:47;9.10;1.00
4637;DHT22;2331;48.806;9.140;2022-11-20T17:57:13;9.10;1.00
4637;DHT22;2331;48.806;9.140;2022-11-20T17:59:58;9.10;1.00
4637;DHT22;2331;48.806;9.140;2022-11-20T18:02:26;9.20;1.00
4637;DHT22;2331;48.806;9.140;2022-11-20T18:04:52;9.20;1.00
4637;DHT22;2331;48.806;9.140;2022-11-20T18:07:19;9.20;1.00
4637;DHT22;2331;48.806;9.140;2022-11-20T18:09:46;9.30;1.00
4637;DHT22;2331;48.806;9.140;2022-11-20T18:12:13;9.20;1.00
4637;DHT22;2331;48.806;9.140;2022-11-20T18:14:40;9.20;1.00
4637;DHT22;2331;48.806;9.140;2022-11-20T18:17:09;9.20;1.00
4637;DHT22;2331;48.806;9.140;2022-11-20T18:19:39;9.30;1.00
4637;DHT22;2331;48.806;9.140;2022-11-20T18:22:06;9.30;1.00
4637;DHT22;2331;48.806;9.140;2022-11-20T18:24:34;9.30;1.00
4637;DHT22;2331;48.806;9.140;2022-11-20T18:27:02;9.40;1.00
4637;DHT22;2331;48.806;9.140;2022-11-20T18:29:29;9.40;1.00
4637;DHT22;2331;48.806;9.140;2022-11-20T18:31:56;9.40;1.00
4637;DHT22;2331;48.806;9.140;2022-11-20T18:34:24;9.40;1.00
4637;DHT22;2331;48.806;9.140;2022-11-20T18:36:52;9.50;1.00
4637;DHT22;2331;48.806;9.140;2022-11-20T18:39:19;9.40;1.00
4637;DHT22;2331;48.806;9.140;2022-11-20T18:41:46;9.50;1.00
4637;DHT22;2331;48.806;9.140;2022-11-20T18:44:31;9.30;1.00
4637;DHT22;2331;48.806;9.140;2022-11-20T18:47:18;9.30;1.00
4637;DHT22;2331;48.806;9.140;2022-11-20T18:49:47;9.30;1.00
4637;DHT22;2331;48.806;9.140;2022-11-20T18:52:19;9.30;1.00
4637;DHT22;2331;48.806;9.140;2022-11-20T18:54:46;9.20;1.00
4637;DHT22;2331;48.806;9.140;2022-11-20T18:57:14;9.00;1.00
4637;DHT22;2331;48.806;9.140;2022-11-20T18:59:42;8.90;1.00
4637;DHT22;2331;48.806;9.140;2022-11-20T19:02:10;9.00;1.00
4637;DHT22;2331;48.806;9.140;2022-11-20T19:04:37;8.90;1.00
4637;DHT22;2331;48.806;9.140;2022-11-20T19:07:04;8.80;1.00
4637;DHT22;2331;48.806;9.140;2022-11-20T19:09:33;8.80;1.00
4637;DHT22;2331;48.806;9.140;2022-11-20T19:12:00;8.80;1.00
4637;DHT22;2331;48.806;9.140;2022-11-20T19:14:26;8.80;1.00
4637;DHT22;2331;48.806;9.140;2022-11-20T19:16:53;8.70;1.00
4637;DHT22;2331;48.806;9.140;2022-11-20T19:19:20;8.70;1.00
4637;DHT22;2331;48.806;9.140;2022-11-20T19:21:47;8.70;1.00
4637;DHT22;2331;48.806;9.140;2022-11-20T19:24:14;8.70;1.00
4637;DHT22;2331;48.806;9.140;2022-11-20T19:26:42;8.70;1.00
4637;DHT22;2331;48.806;9.140;2022-11-20T19:29:12;8.70;1.00
4637;DHT22;2331;48.806;9.140;2022-11-20T19:31:40;8.80;1.00
4637;DHT22;2331;48.806;9.140;2022-11-20T19:34:08;8.80;1.00
4637;DHT22;2331;48.806;9.140;2022-11-20T19:36:37;8.90;1.00
4637;DHT22;2331;48.806;9.140;2022-11-20T19:39:06;8.90;1.00
4637;DHT22;2331;48.806;9.140;2022-11-20T19:41:35;8.80;1.00
4637;DHT22;2331;48.806;9.140;2022-11-20T19:44:05;8.80;1.00
4637;DHT22;2331;48.806;9.140;2022-11-20T19:46:33;8.70;1.00
4637;DHT22;2331;48.806;9.140;2022-11-20T19:49:01;8.70;1.00
4637;DHT22;2331;48.806;9.140;2022-11-20T19:51:31;8.50;1.00
4637;DHT22;2331;48.806;9.140;2022-11-20T19:53:58;8.50;1.00
4637;DHT22;2331;48.806;9.140;2022-11-20T19:56:27;8.50;1.00
4637;DHT22;2331;48.806;9.140;2022-11-20T19:58:55;8.40;1.00
4637;DHT22;2331;48.806;9.140;2022-11-20T20:01:24;8.40;1.00
4637;DHT22;2331;48.806;9.140;2022-11-20T20:03:52;8.40;1.00
4637;DHT22;2331;48.806;9.140;2022-11-20T20:06:21;8.40;1.00
4637;DHT22;2331;48.806;9.140;2022-11-20T20:08:53;8.40;1.00
4637;DHT22;2331;48.806;9.140;2022-11-20T20:11:21;8.30;1.00
4637;DHT22;2331;48.806;9.140;2022-11-20T20:13:48;8.40;1.00
4637;DHT22;2331;48.806;9.140;2022-11-20T20:16:17;8.40;1.00
4637;DHT22;2331;48.806;9.140;2022-11-20T20:18:46;9.50;1.00
4637;DHT22;2331;48.806;9.140;2022-11-20T20:21:15;10.10;1.00
4637;DHT22;2331;48.806;9.140;2022-11-20T20:23:43;9.90;1.00
4637;DHT22;2331;48.806;9.140;2022-11-20T20:26:10;9.70;1.00
4637;DHT22;2331;48.806;9.140;2022-11-20T20:28:38;9.60;1.00
4637;DHT22;2331;48.806;9.140;2022-11-20T20:31:06;9.40;1.00
4637;DHT22;2331;48.806;9.140;2022-11-20T20:33:35;9.30;1.00
4637;DHT22;2331;48.806;9.140;2022-11-20T20:36:04;9.10;1.00
4637;DHT22;2331;48.806;9.140;2022-11-20T20:38:31;8.90;1.00
4637;DHT22;2331;48.806;9.140;2022-11-20T20:40:58;8.90;1.00
4637;DHT22;2331;48.806;9.140;2022-11-20T20:43:25;8.90;1.00
4637;DHT22;2331;48.806;9.140;2022-11-20T20:45:53;8.70;1.00
4637;DHT22;2331;48.806;9.140;2022-11-20T20:48:22;8.70;1.00
4637;DHT22;2331;48.806;9.140;2022-11-20T20:50:53;8.50;1.00
4637;DHT22;2331;48.806;9.140;2022-11-20T20:53:21;8.50;1.00
4637;DHT22;2331;48.806;9.140;2022-11-20T20:55:55;8.50;1.00
4637;DHT22;2331;48.806;9.140;2022-11-20T20:58:23;8.40;1.00
4637;DHT22;2331;48.806;9.140;2022-11-20T21:00:50;8.20;1.00
4637;DHT22;2331;48.806;9.140;2022-11-20T21:03:17;8.20;1.00
4637;DHT22;2331;48.806;9.140;2022-11-20T21:05:44;8.00;1.00
4637;DHT22;2331;48.806;9.140;2022-11-20T21:08:11;8.00;1.00
4637;DHT22;2331;48.806;9.140;2022-11-20T21:10:51;8.10;1.00
4637;DHT22;2331;48.806;9.140;2022-11-20T21:13:18;8.10;1.00
4637;DHT22;2331;48.806;9.140;2022-11-20T21:15:46;7.90;1.00
4637;DHT22;2331;48.806;9.140;2022-11-20T21:18:14;7.90;1.00
4637;DHT22;2331;48.806;9.140;2022-11-20T21:20:41;7.90;1.00
4637;DHT22;2331;48.806;9.140;2022-11-20T21:23:25;7.90;1.00
4637;DHT22;2331;48.806;9.140;2022-11-20T21:25:53;7.90;1.00
4637;DHT22;2331;48.806;9.140;2022-11-20T21:28:20;8.00;1.00
4637;DHT22;2331;48.806;9.140;2022-11-20T21:30:47;7.90;1.00
4637;DHT22;2331;48.806;9.140;2022-11-20T21:33:14;7.90;1.00
4637;DHT22;2331;48.806;9.140;2022-11-20T21:35:40;7.80;1.00
4637;DHT22;2331;48.806;9.140;2022-11-20T21:38:07;7.80;1.00
4637;DHT22;2331;48.806;9.140;2022-11-20T21:40:34;7.70;1.00
4637;DHT22;2331;48.806;9.140;2022-11-20T21:43:02;7.80;1.00
4637;DHT22;2331;48.806;9.140;2022-11-20T21:45:29;7.80;1.00
4637;DHT22;2331;48.806;9.140;2022-11-20T21:47:56;7.80;1.00
4637;DHT22;2331;48.806;9.140;2022-11-20T21:50:22;7.70;1.00
4637;DHT22;2331;48.806;9.140;2022-11-20T21:52:49;7.60;1.00
4637;DHT22;2331;48.806;9.140;2022-11-20T21:55:16;7.60;1.00
4637;DHT22;2331;48.806;9.140;2022-11-20T21:57:43;7.60;1.00
4637;DHT22;2331;48.806;9.140;2022-11-20T22:00:12;7.70;1.00
4637;DHT22;2331;48.806;9.140;2022-11-20T22:02:39;7.70;1.00
4637;DHT22;2331;48.806;9.140;2022-11-20T22:05:06;7.70;1.00
4637;DHT22;2331;48.806;9.140;2022-11-20T22:07:33;7.70;1.00
4637;DHT22;2331;48.806;9.140;2022-11-20T22:10:00;7.70;1.00
4637;DHT22;2331;48.806;9.140;2022-11-20T22:12:27;7.70;1.00
4637;DHT22;2331;48.806;9.140;2022-11-20T22:14:54;7.70;1.00
4637;DHT22;2331;48.806;9.140;2022-11-20T22:17:21;7.80;1.00
4637;DHT22;2331;48.806;9.140;2022-11-20T22:20:09;7.80;1.00
4637;DHT22;2331;48.806;9.140;2022-11-20T22:22:38;7.70;1.00
4637;DHT22;2331;48.806;9.140;2022-11-20T22:25:05;7.70;1.00
4637;DHT22;2331;48.806;9.140;2022-11-20T22:27:32;7.70;1.00
4637;DHT22;2331;48.806;9.140;2022-11-20T22:29:59;7.70;1.00
4637;DHT22;2331;48.806;9.140;2022-11-20T22:32:27;7.70;1.00
4637;DHT22;2331;48.806;9.140;2022-11-20T22:34:53;7.60;1.00
4637;DHT22;2331;48.806;9.140;2022-11-20T22:37:20;7.70;1.00
4637;DHT22;2331;48.806;9.140;2022-11-20T22:39:47;7.60;1.00
4637;DHT22;2331;48.806;9.140;2022-11-20T22:42:14;7.60;1.00
4637;DHT22;2331;48.806;9.140;2022-11-20T22:44:40;7.60;1.00
4637;DHT22;2331;48.806;9.140;2022-11-20T22:47:07;7.60;1.00
4637;DHT22;2331;48.806;9.140;2022-11-20T22:49:35;7.60;1.00
4637;DHT22;2331;48.806;9.140;2022-11-20T22:52:02;7.70;1.00
4637;DHT22;2331;48.806;9.140;2022-11-20T22:54:29;7.70;1.00
4637;DHT22;2331;48.806;9.140;2022-11-20T22:56:56;7.70;1.00
4637;DHT22;2331;48.806;9.140;2022-11-20T22:59:23;7.70;1.00
4637;DHT22;2331;48.806;9.140;2022-11-20T23:01:49;7.70;1.00
4637;DHT22;2331;48.806;9.140;2022-11-20T23:04:16;7.60;1.00
4637;DHT22;2331;48.806;9.140;2022-11-20T23:06:44;7.60;1.00
4637;DHT22;2331;48.806;9.140;2022-11-20T23:09:11;7.60;1.00
4637;DHT22;2331;48.806;9.140;2022-11-20T23:11:38;7.60;1.00
4637;DHT22;2331;48.806;9.140;2022-11-20T23:14:06;7.60;1.00
4637;DHT22;2331;48.806;9.140;2022-11-20T23:16:34;7.60;1.00
4637;DHT22;2331;48.806;9.140;2022-11-20T23:19:02;7.60;1.00
4637;DHT22;2331;48.806;9.140;2022-11-20T23:21:30;7.60;1.00
4637;DHT22;2331;48.806;9.140;2022-11-20T23:23:58;7.60;1.00
4637;DHT22;2331;48.806;9.140;2022-11-20T23:26:28;7.70;1.00
4637;DHT22;2331;48.806;9.140;2022-11-20T23:28:56;7.60;1.00
4637;DHT22;2331;48.806;9.140;2022-11-20T23:31:24;7.60;1.00
4637;DHT22;2331;48.806;9.140;2022-11-20T23:33:51;7.60;1.00
4637;DHT22;2331;48.806;9.140;2022-11-20T23:36:18;7.50;1.00
4637;DHT22;2331;48.806;9.140;2022-11-20T23:38:46;7.60;1.00
4637;DHT22;2331;48.806;9.140;2022-11-20T23:41:14;7.60;1.00
4637;DHT22;2331;48.806;9.140;2022-11-20T23:43:41;7.60;1.00
4637;DHT22;2331;48.806;9.140;2022-11-20T23:46:08;7.60;1.00
4637;DHT22;2331;48.806;9.140;2022-11-20T23:48:36;7.60;1.00
4637;DHT22;2331;48.806;9.140;2022-11-20T23:51:05;7.50;1.00
4637;DHT22;2331;48.806;9.140;2022-11-20T23:53:32;7.60;1.00
4637;DHT22;2331;48.806;9.140;2022-11-20T23:56:01;7.60;1.00
4637;DHT22;2331;48.806;9.140;2022-11-20T23:58:32;7.60;1.00
